Monroe Regional Airport Monroe US
ICAO: KMLU
IATA: MLU
Category: Large
Scheduled Services: Yes

Elevation: 79 ft
TransAlt. 18000 ft.

Airport Communications:
APP/DEP:118.15
ATIS:125.05
CLNC DEL:121.65
CTAF:118.9
GND:121.9
DE RIDDER RDO:122.25
TWR:118.9
UNICOM:122.95

KMLU Zoom In..

Runways:

(A) RW 04 length 7505 ft width 150 ft
ILS 109.50 / hdg 42

(B) RW 14 length 4999 ft width 150 ft
---- / hdg 137

(C) RW 18 length 5001 ft width 150 ft
---- / hdg 177

(D) RW 22 length 7505 ft width 150 ft
ILS 109.50 / hdg 222

(E) RW 32 length 4999 ft width 150 ft
---- / hdg 317

(F) RW 36 length 5001 ft width 150 ft
---- / hdg 357

Location; KMLU
Day. 23 / Time. 06.53 Zulu
* Altimeter: 29.84
* Temperature: 26° c. 78.8°f.
* Wind from: 200° Speed 04 kn.
Dewpoint: 23° c.
Visibility: 10 Statute Miles.
Clouds: Clear (automated report).

KMLU 230653Z AUTO 20004KT 10SM CLR 26/23 A2984 RMK AO2 SLP104 T02560228


Wind From 200°
Speed 04 kn.

 
 
jpsmedia.com for Web Design worldairports.se 2018   terms of use